sensor_id;sensor_type;location;lat;lon;timestamp;P1;durP1;ratioP1;P2;durP2;ratioP2
59442;SDS011;45247;47.466;19.004;2023-11-19T00:00:19;7.40;;;4.55;;
59442;SDS011;45247;47.466;19.004;2023-11-19T00:02:47;10.15;;;5.63;;
59442;SDS011;45247;47.466;19.004;2023-11-19T00:05:17;9.63;;;5.40;;
59442;SDS011;45247;47.466;19.004;2023-11-19T00:07:46;8.00;;;5.10;;
59442;SDS011;45247;47.466;19.004;2023-11-19T00:10:15;9.93;;;5.03;;
59442;SDS011;45247;47.466;19.004;2023-11-19T00:12:46;10.45;;;4.97;;
59442;SDS011;45247;47.466;19.004;2023-11-19T00:15:15;10.57;;;5.30;;
59442;SDS011;45247;47.466;19.004;2023-11-19T00:17:46;14.15;;;5.82;;
59442;SDS011;45247;47.466;19.004;2023-11-19T00:20:18;9.25;;;5.25;;
59442;SDS011;45247;47.466;19.004;2023-11-19T00:22:48;9.98;;;5.80;;
59442;SDS011;45247;47.466;19.004;2023-11-19T00:25:19;10.63;;;5.72;;
59442;SDS011;45247;47.466;19.004;2023-11-19T00:27:48;8.63;;;5.00;;
59442;SDS011;45247;47.466;19.004;2023-11-19T00:30:17;10.07;;;5.53;;
59442;SDS011;45247;47.466;19.004;2023-11-19T00:32:45;11.45;;;5.55;;
59442;SDS011;45247;47.466;19.004;2023-11-19T00:35:14;9.40;;;5.60;;
59442;SDS011;45247;47.466;19.004;2023-11-19T00:37:44;8.55;;;5.13;;
59442;SDS011;45247;47.466;19.004;2023-11-19T00:40:14;8.05;;;4.45;;
59442;SDS011;45247;47.466;19.004;2023-11-19T00:42:45;7.97;;;4.90;;
59442;SDS011;45247;47.466;19.004;2023-11-19T00:45:14;11.18;;;5.78;;
59442;SDS011;45247;47.466;19.004;2023-11-19T00:47:42;8.77;;;5.18;;
59442;SDS011;45247;47.466;19.004;2023-11-19T00:50:11;9.77;;;5.85;;
59442;SDS011;45247;47.466;19.004;2023-11-19T00:52:39;9.73;;;5.90;;
59442;SDS011;45247;47.466;19.004;2023-11-19T00:55:09;11.02;;;6.22;;
59442;SDS011;45247;47.466;19.004;2023-11-19T00:57:38;10.23;;;5.63;;
59442;SDS011;45247;47.466;19.004;2023-11-19T01:00:07;15.93;;;6.50;;
59442;SDS011;45247;47.466;19.004;2023-11-19T01:02:46;11.00;;;5.70;;
59442;SDS011;45247;47.466;19.004;2023-11-19T01:05:18;10.80;;;6.20;;
59442;SDS011;45247;47.466;19.004;2023-11-19T01:07:48;13.55;;;6.25;;
59442;SDS011;45247;47.466;19.004;2023-11-19T01:10:20;9.98;;;5.38;;
59442;SDS011;45247;47.466;19.004;2023-11-19T01:12:48;14.40;;;7.80;;
59442;SDS011;45247;47.466;19.004;2023-11-19T01:15:16;12.10;;;6.53;;
59442;SDS011;45247;47.466;19.004;2023-11-19T01:17:46;15.60;;;7.88;;
59442;SDS011;45247;47.466;19.004;2023-11-19T01:20:17;12.52;;;7.10;;
59442;SDS011;45247;47.466;19.004;2023-11-19T01:22:47;14.55;;;7.20;;
59442;SDS011;45247;47.466;19.004;2023-11-19T01:25:16;10.07;;;6.20;;
59442;SDS011;45247;47.466;19.004;2023-11-19T01:27:46;13.32;;;6.85;;
59442;SDS011;45247;47.466;19.004;2023-11-19T01:30:14;12.93;;;6.78;;
59442;SDS011;45247;47.466;19.004;2023-11-19T01:32:42;10.40;;;6.15;;
59442;SDS011;45247;47.466;19.004;2023-11-19T01:35:11;12.02;;;6.85;;
59442;SDS011;45247;47.466;19.004;2023-11-19T01:37:39;12.82;;;6.15;;
59442;SDS011;45247;47.466;19.004;2023-11-19T01:40:08;12.13;;;6.32;;
59442;SDS011;45247;47.466;19.004;2023-11-19T01:42:38;12.13;;;6.68;;
59442;SDS011;45247;47.466;19.004;2023-11-19T01:45:09;15.93;;;7.25;;
59442;SDS011;45247;47.466;19.004;2023-11-19T01:47:48;9.57;;;5.72;;
59442;SDS011;45247;47.466;19.004;2023-11-19T01:50:16;14.50;;;7.53;;
59442;SDS011;45247;47.466;19.004;2023-11-19T01:52:46;11.45;;;6.55;;
59442;SDS011;45247;47.466;19.004;2023-11-19T01:55:14;10.82;;;6.18;;
59442;SDS011;45247;47.466;19.004;2023-11-19T01:57:42;12.52;;;7.07;;
59442;SDS011;45247;47.466;19.004;2023-11-19T02:00:12;12.00;;;7.05;;
59442;SDS011;45247;47.466;19.004;2023-11-19T02:02:41;14.30;;;7.80;;
59442;SDS011;45247;47.466;19.004;2023-11-19T02:05:11;14.85;;;8.35;;
59442;SDS011;45247;47.466;19.004;2023-11-19T02:07:40;16.25;;;7.82;;
59442;SDS011;45247;47.466;19.004;2023-11-19T02:10:09;14.35;;;7.35;;
59442;SDS011;45247;47.466;19.004;2023-11-19T02:12:41;13.48;;;6.90;;
59442;SDS011;45247;47.466;19.004;2023-11-19T02:15:12;13.98;;;8.35;;
59442;SDS011;45247;47.466;19.004;2023-11-19T02:17:41;11.55;;;7.15;;
59442;SDS011;45247;47.466;19.004;2023-11-19T02:20:10;12.77;;;7.13;;
59442;SDS011;45247;47.466;19.004;2023-11-19T02:22:41;15.60;;;7.55;;
59442;SDS011;45247;47.466;19.004;2023-11-19T02:25:12;12.88;;;7.55;;
59442;SDS011;45247;47.466;19.004;2023-11-19T02:27:51;13.25;;;6.88;;
59442;SDS011;45247;47.466;19.004;2023-11-19T02:30:23;13.23;;;6.55;;
59442;SDS011;45247;47.466;19.004;2023-11-19T02:32:53;12.95;;;6.35;;
59442;SDS011;45247;47.466;19.004;2023-11-19T02:35:24;13.63;;;6.10;;
59442;SDS011;45247;47.466;19.004;2023-11-19T02:37:52;12.48;;;7.22;;
59442;SDS011;45247;47.466;19.004;2023-11-19T02:40:21;14.10;;;7.05;;
59442;SDS011;45247;47.466;19.004;2023-11-19T02:42:52;12.52;;;6.72;;
59442;SDS011;45247;47.466;19.004;2023-11-19T02:45:22;11.15;;;6.45;;
59442;SDS011;45247;47.466;19.004;2023-11-19T02:47:51;14.00;;;7.07;;
59442;SDS011;45247;47.466;19.004;2023-11-19T02:50:21;10.68;;;5.85;;
59442;SDS011;45247;47.466;19.004;2023-11-19T02:52:53;10.52;;;6.28;;
59442;SDS011;45247;47.466;19.004;2023-11-19T02:55:23;12.48;;;7.15;;
59442;SDS011;45247;47.466;19.004;2023-11-19T02:57:56;10.85;;;5.93;;
59442;SDS011;45247;47.466;19.004;2023-11-19T03:00:26;12.77;;;6.72;;
59442;SDS011;45247;47.466;19.004;2023-11-19T03:03:04;11.95;;;6.75;;
59442;SDS011;45247;47.466;19.004;2023-11-19T03:05:45;9.68;;;6.07;;
59442;SDS011;45247;47.466;19.004;2023-11-19T03:08:14;16.17;;;7.75;;
59442;SDS011;45247;47.466;19.004;2023-11-19T03:10:46;13.95;;;6.93;;
59442;SDS011;45247;47.466;19.004;2023-11-19T03:13:15;13.55;;;7.60;;
59442;SDS011;45247;47.466;19.004;2023-11-19T03:15:44;12.65;;;7.35;;
59442;SDS011;45247;47.466;19.004;2023-11-19T03:18:13;10.82;;;6.22;;
59442;SDS011;45247;47.466;19.004;2023-11-19T03:20:41;12.98;;;6.45;;
59442;SDS011;45247;47.466;19.004;2023-11-19T03:23:09;11.80;;;6.88;;
59442;SDS011;45247;47.466;19.004;2023-11-19T03:25:37;11.32;;;6.07;;
59442;SDS011;45247;47.466;19.004;2023-11-19T03:28:05;11.05;;;5.93;;
59442;SDS011;45247;47.466;19.004;2023-11-19T03:30:35;12.80;;;6.50;;
59442;SDS011;45247;47.466;19.004;2023-11-19T03:33:03;10.02;;;5.57;;
59442;SDS011;45247;47.466;19.004;2023-11-19T03:35:32;11.20;;;6.28;;
59442;SDS011;45247;47.466;19.004;2023-11-19T03:38:00;11.68;;;5.82;;
59442;SDS011;45247;47.466;19.004;2023-11-19T03:40:28;10.15;;;5.55;;
59442;SDS011;45247;47.466;19.004;2023-11-19T03:42:57;12.35;;;6.07;;
59442;SDS011;45247;47.466;19.004;2023-11-19T03:45:25;10.80;;;6.00;;
59442;SDS011;45247;47.466;19.004;2023-11-19T03:47:55;13.45;;;6.47;;
59442;SDS011;45247;47.466;19.004;2023-11-19T03:50:23;11.80;;;6.07;;
59442;SDS011;45247;47.466;19.004;2023-11-19T03:52:51;16.75;;;8.10;;
59442;SDS011;45247;47.466;19.004;2023-11-19T03:55:20;16.60;;;7.82;;
59442;SDS011;45247;47.466;19.004;2023-11-19T03:57:48;16.40;;;8.00;;
59442;SDS011;45247;47.466;19.004;2023-11-19T04:00:16;19.23;;;8.55;;
59442;SDS011;45247;47.466;19.004;2023-11-19T04:02:46;14.68;;;8.38;;
59442;SDS011;45247;47.466;19.004;2023-11-19T04:05:16;18.13;;;8.90;;
59442;SDS011;45247;47.466;19.004;2023-11-19T04:07:45;17.15;;;8.02;;
59442;SDS011;45247;47.466;19.004;2023-11-19T04:10:13;14.50;;;6.88;;
59442;SDS011;45247;47.466;19.004;2023-11-19T04:12:43;17.63;;;7.43;;
59442;SDS011;45247;47.466;19.004;2023-11-19T04:15:11;12.82;;;6.75;;
59442;SDS011;45247;47.466;19.004;2023-11-19T04:17:39;15.55;;;7.55;;
59442;SDS011;45247;47.466;19.004;2023-11-19T04:20:08;11.95;;;6.63;;
59442;SDS011;45247;47.466;19.004;2023-11-19T04:22:40;15.23;;;7.93;;
59442;SDS011;45247;47.466;19.004;2023-11-19T04:25:08;13.73;;;7.47;;
59442;SDS011;45247;47.466;19.004;2023-11-19T04:27:37;14.75;;;7.32;;
59442;SDS011;45247;47.466;19.004;2023-11-19T04:30:06;13.63;;;7.35;;
59442;SDS011;45247;47.466;19.004;2023-11-19T04:32:37;15.30;;;7.13;;
59442;SDS011;45247;47.466;19.004;2023-11-19T04:35:06;13.02;;;6.43;;
59442;SDS011;45247;47.466;19.004;2023-11-19T04:37:37;13.77;;;6.90;;
59442;SDS011;45247;47.466;19.004;2023-11-19T04:40:07;13.55;;;7.18;;
59442;SDS011;45247;47.466;19.004;2023-11-19T04:42:36;14.23;;;7.55;;
59442;SDS011;45247;47.466;19.004;2023-11-19T04:45:07;19.05;;;8.80;;
59442;SDS011;45247;47.466;19.004;2023-11-19T04:47:37;15.25;;;8.13;;
59442;SDS011;45247;47.466;19.004;2023-11-19T04:50:05;15.60;;;7.72;;
59442;SDS011;45247;47.466;19.004;2023-11-19T04:52:37;18.38;;;7.38;;
59442;SDS011;45247;47.466;19.004;2023-11-19T04:55:10;13.75;;;7.03;;
59442;SDS011;45247;47.466;19.004;2023-11-19T04:57:44;12.23;;;6.65;;
59442;SDS011;45247;47.466;19.004;2023-11-19T05:00:13;16.35;;;7.07;;
59442;SDS011;45247;47.466;19.004;2023-11-19T05:02:43;18.67;;;7.40;;
59442;SDS011;45247;47.466;19.004;2023-11-19T05:05:11;17.35;;;8.10;;
59442;SDS011;45247;47.466;19.004;2023-11-19T05:07:39;16.02;;;8.18;;
59442;SDS011;45247;47.466;19.004;2023-11-19T05:10:08;14.50;;;7.22;;
59442;SDS011;45247;47.466;19.004;2023-11-19T05:12:37;20.38;;;8.40;;
59442;SDS011;45247;47.466;19.004;2023-11-19T05:15:08;20.52;;;8.70;;
59442;SDS011;45247;47.466;19.004;2023-11-19T05:17:38;20.70;;;9.90;;
59442;SDS011;45247;47.466;19.004;2023-11-19T05:20:07;19.58;;;10.00;;
59442;SDS011;45247;47.466;19.004;2023-11-19T05:22:40;17.52;;;8.77;;
59442;SDS011;45247;47.466;19.004;2023-11-19T05:25:10;16.27;;;8.95;;
59442;SDS011;45247;47.466;19.004;2023-11-19T05:27:39;16.00;;;7.47;;
59442;SDS011;45247;47.466;19.004;2023-11-19T05:30:07;18.52;;;8.95;;
59442;SDS011;45247;47.466;19.004;2023-11-19T05:32:37;17.63;;;9.25;;
59442;SDS011;45247;47.466;19.004;2023-11-19T05:35:07;18.48;;;8.73;;
59442;SDS011;45247;47.466;19.004;2023-11-19T05:37:36;18.98;;;9.32;;
59442;SDS011;45247;47.466;19.004;2023-11-19T05:40:05;17.40;;;8.57;;
59442;SDS011;45247;47.466;19.004;2023-11-19T05:42:43;17.30;;;8.80;;
59442;SDS011;45247;47.466;19.004;2023-11-19T05:45:11;17.27;;;9.77;;
59442;SDS011;45247;47.466;19.004;2023-11-19T05:47:40;16.77;;;8.68;;
59442;SDS011;45247;47.466;19.004;2023-11-19T05:50:09;16.85;;;9.02;;
59442;SDS011;45247;47.466;19.004;2023-11-19T05:52:38;19.08;;;9.60;;
59442;SDS011;45247;47.466;19.004;2023-11-19T05:55:06;17.70;;;9.30;;
59442;SDS011;45247;47.466;19.004;2023-11-19T05:57:37;15.00;;;8.35;;
59442;SDS011;45247;47.466;19.004;2023-11-19T06:00:10;21.58;;;9.40;;
59442;SDS011;45247;47.466;19.004;2023-11-19T06:02:42;14.98;;;7.68;;
59442;SDS011;45247;47.466;19.004;2023-11-19T06:05:10;16.55;;;9.07;;
59442;SDS011;45247;47.466;19.004;2023-11-19T06:07:39;16.83;;;8.90;;
59442;SDS011;45247;47.466;19.004;2023-11-19T06:10:08;21.05;;;9.30;;
59442;SDS011;45247;47.466;19.004;2023-11-19T06:12:37;18.75;;;9.57;;
59442;SDS011;45247;47.466;19.004;2023-11-19T06:15:08;21.80;;;9.95;;
59442;SDS011;45247;47.466;19.004;2023-11-19T06:17:38;21.90;;;9.63;;
59442;SDS011;45247;47.466;19.004;2023-11-19T06:20:07;15.00;;;8.57;;
59442;SDS011;45247;47.466;19.004;2023-11-19T06:22:38;19.20;;;9.25;;
59442;SDS011;45247;47.466;19.004;2023-11-19T06:25:09;17.00;;;9.00;;
59442;SDS011;45247;47.466;19.004;2023-11-19T06:27:39;15.88;;;8.85;;
59442;SDS011;45247;47.466;19.004;2023-11-19T06:30:07;20.08;;;9.35;;
59442;SDS011;45247;47.466;19.004;2023-11-19T06:32:38;19.15;;;10.27;;
59442;SDS011;45247;47.466;19.004;2023-11-19T06:35:07;21.42;;;10.20;;
59442;SDS011;45247;47.466;19.004;2023-11-19T06:37:38;19.95;;;9.77;;
59442;SDS011;45247;47.466;19.004;2023-11-19T06:40:07;22.63;;;10.18;;
59442;SDS011;45247;47.466;19.004;2023-11-19T06:42:36;17.13;;;9.07;;
59442;SDS011;45247;47.466;19.004;2023-11-19T06:45:05;16.42;;;9.43;;
59442;SDS011;45247;47.466;19.004;2023-11-19T06:47:34;18.15;;;9.25;;
59442;SDS011;45247;47.466;19.004;2023-11-19T06:50:05;21.27;;;9.90;;
59442;SDS011;45247;47.466;19.004;2023-11-19T06:55:04;13.00;;;7.55;;
59442;SDS011;45247;47.466;19.004;2023-11-19T06:57:34;15.63;;;8.32;;
59442;SDS011;45247;47.466;19.004;2023-11-19T07:00:03;16.55;;;8.23;;
59442;SDS011;45247;47.466;19.004;2023-11-19T07:02:33;16.02;;;8.48;;
59442;SDS011;45247;47.466;19.004;2023-11-19T07:05:01;17.98;;;8.88;;
59442;SDS011;45247;47.466;19.004;2023-11-19T07:07:32;16.65;;;8.90;;
59442;SDS011;45247;47.466;19.004;2023-11-19T07:10:00;17.02;;;9.32;;
59442;SDS011;45247;47.466;19.004;2023-11-19T07:12:28;18.08;;;9.85;;
59442;SDS011;45247;47.466;19.004;2023-11-19T07:14:56;18.73;;;9.18;;
59442;SDS011;45247;47.466;19.004;2023-11-19T07:17:25;15.15;;;8.43;;
59442;SDS011;45247;47.466;19.004;2023-11-19T07:19:54;14.82;;;8.80;;
59442;SDS011;45247;47.466;19.004;2023-11-19T07:24:57;18.60;;;9.20;;
59442;SDS011;45247;47.466;19.004;2023-11-19T07:27:26;16.77;;;9.48;;
59442;SDS011;45247;47.466;19.004;2023-11-19T07:29:54;20.13;;;10.00;;
59442;SDS011;45247;47.466;19.004;2023-11-19T07:32:22;16.73;;;9.85;;
59442;SDS011;45247;47.466;19.004;2023-11-19T07:34:51;17.33;;;9.57;;
59442;SDS011;45247;47.466;19.004;2023-11-19T07:37:19;22.08;;;10.63;;
59442;SDS011;45247;47.466;19.004;2023-11-19T07:39:47;19.98;;;10.27;;
59442;SDS011;45247;47.466;19.004;2023-11-19T07:42:17;20.10;;;10.93;;
59442;SDS011;45247;47.466;19.004;2023-11-19T07:44:46;19.50;;;10.65;;
59442;SDS011;45247;47.466;19.004;2023-11-19T07:47:14;16.85;;;9.40;;
59442;SDS011;45247;47.466;19.004;2023-11-19T07:49:42;23.95;;;11.70;;
59442;SDS011;45247;47.466;19.004;2023-11-19T07:52:11;22.25;;;11.98;;
59442;SDS011;45247;47.466;19.004;2023-11-19T07:54:42;19.15;;;10.48;;
59442;SDS011;45247;47.466;19.004;2023-11-19T07:57:10;19.58;;;11.45;;
59442;SDS011;45247;47.466;19.004;2023-11-19T07:59:40;21.30;;;11.45;;
59442;SDS011;45247;47.466;19.004;2023-11-19T08:02:08;19.42;;;11.80;;
59442;SDS011;45247;47.466;19.004;2023-11-19T08:04:36;25.88;;;12.82;;
59442;SDS011;45247;47.466;19.004;2023-11-19T08:07:06;18.98;;;12.18;;
59442;SDS011;45247;47.466;19.004;2023-11-19T08:09:35;24.60;;;12.57;;
59442;SDS011;45247;47.466;19.004;2023-11-19T08:12:04;23.90;;;12.90;;
59442;SDS011;45247;47.466;19.004;2023-11-19T08:14:33;21.70;;;12.45;;
59442;SDS011;45247;47.466;19.004;2023-11-19T08:17:03;25.23;;;13.38;;
59442;SDS011;45247;47.466;19.004;2023-11-19T08:19:31;22.10;;;12.68;;
59442;SDS011;45247;47.466;19.004;2023-11-19T08:22:00;25.85;;;13.63;;
59442;SDS011;45247;47.466;19.004;2023-11-19T08:24:28;24.48;;;15.38;;
59442;SDS011;45247;47.466;19.004;2023-11-19T08:26:56;24.38;;;13.00;;
59442;SDS011;45247;47.466;19.004;2023-11-19T08:29:27;23.15;;;13.48;;
59442;SDS011;45247;47.466;19.004;2023-11-19T08:31:55;30.67;;;13.82;;
59442;SDS011;45247;47.466;19.004;2023-11-19T08:34:25;23.45;;;12.80;;
59442;SDS011;45247;47.466;19.004;2023-11-19T08:36:54;23.30;;;12.75;;
59442;SDS011;45247;47.466;19.004;2023-11-19T08:39:22;25.42;;;13.13;;
59442;SDS011;45247;47.466;19.004;2023-11-19T08:41:50;23.40;;;13.00;;
59442;SDS011;45247;47.466;19.004;2023-11-19T08:44:18;23.45;;;13.02;;
59442;SDS011;45247;47.466;19.004;2023-11-19T08:46:47;23.30;;;12.35;;
59442;SDS011;45247;47.466;19.004;2023-11-19T08:49:15;28.50;;;13.20;;
59442;SDS011;45247;47.466;19.004;2023-11-19T08:51:45;22.67;;;12.93;;
59442;SDS011;45247;47.466;19.004;2023-11-19T08:54:15;23.90;;;13.48;;
59442;SDS011;45247;47.466;19.004;2023-11-19T08:56:43;23.63;;;12.30;;
59442;SDS011;45247;47.466;19.004;2023-11-19T08:59:11;20.17;;;11.15;;
59442;SDS011;45247;47.466;19.004;2023-11-19T09:01:43;20.67;;;11.52;;
59442;SDS011;45247;47.466;19.004;2023-11-19T09:04:11;21.50;;;11.60;;
59442;SDS011;45247;47.466;19.004;2023-11-19T09:06:39;24.63;;;12.57;;
59442;SDS011;45247;47.466;19.004;2023-11-19T09:09:10;22.25;;;12.35;;
59442;SDS011;45247;47.466;19.004;2023-11-19T09:11:39;20.35;;;11.68;;
59442;SDS011;45247;47.466;19.004;2023-11-19T09:14:07;25.17;;;11.52;;
59442;SDS011;45247;47.466;19.004;2023-11-19T09:16:35;24.45;;;12.35;;
59442;SDS011;45247;47.466;19.004;2023-11-19T09:19:04;23.33;;;12.13;;
59442;SDS011;45247;47.466;19.004;2023-11-19T09:21:32;21.13;;;12.73;;
59442;SDS011;45247;47.466;19.004;2023-11-19T09:24:04;22.00;;;12.32;;
59442;SDS011;45247;47.466;19.004;2023-11-19T09:26:35;21.17;;;12.77;;
59442;SDS011;45247;47.466;19.004;2023-11-19T09:29:06;24.80;;;13.63;;
59442;SDS011;45247;47.466;19.004;2023-11-19T09:31:34;21.27;;;11.82;;
59442;SDS011;45247;47.466;19.004;2023-11-19T09:34:02;22.23;;;11.65;;
59442;SDS011;45247;47.466;19.004;2023-11-19T09:36:30;23.85;;;12.77;;
59442;SDS011;45247;47.466;19.004;2023-11-19T09:38:59;23.90;;;12.52;;
59442;SDS011;45247;47.466;19.004;2023-11-19T09:41:29;23.10;;;12.15;;
59442;SDS011;45247;47.466;19.004;2023-11-19T09:43:59;21.45;;;11.95;;
59442;SDS011;45247;47.466;19.004;2023-11-19T09:46:28;30.90;;;14.15;;
59442;SDS011;45247;47.466;19.004;2023-11-19T09:48:57;20.77;;;12.10;;
59442;SDS011;45247;47.466;19.004;2023-11-19T09:51:26;21.17;;;12.65;;
59442;SDS011;45247;47.466;19.004;2023-11-19T09:53:55;22.83;;;11.43;;
59442;SDS011;45247;47.466;19.004;2023-11-19T09:56:24;20.13;;;11.98;;
59442;SDS011;45247;47.466;19.004;2023-11-19T09:58:52;19.70;;;11.57;;
59442;SDS011;45247;47.466;19.004;2023-11-19T10:01:22;20.58;;;11.63;;
59442;SDS011;45247;47.466;19.004;2023-11-19T10:03:55;20.70;;;11.88;;
59442;SDS011;45247;47.466;19.004;2023-11-19T10:06:24;21.90;;;12.30;;
59442;SDS011;45247;47.466;19.004;2023-11-19T10:08:53;19.75;;;11.48;;
59442;SDS011;45247;47.466;19.004;2023-11-19T10:11:23;20.58;;;11.50;;
59442;SDS011;45247;47.466;19.004;2023-11-19T10:13:51;21.05;;;12.00;;
59442;SDS011;45247;47.466;19.004;2023-11-19T10:16:27;20.75;;;11.30;;
59442;SDS011;45247;47.466;19.004;2023-11-19T10:18:56;17.10;;;11.48;;
59442;SDS011;45247;47.466;19.004;2023-11-19T10:21:24;18.38;;;11.30;;
59442;SDS011;45247;47.466;19.004;2023-11-19T10:23:54;21.70;;;11.35;;
59442;SDS011;45247;47.466;19.004;2023-11-19T10:26:26;17.20;;;11.40;;
59442;SDS011;45247;47.466;19.004;2023-11-19T10:28:55;18.65;;;11.25;;
59442;SDS011;45247;47.466;19.004;2023-11-19T10:31:25;28.10;;;13.75;;
59442;SDS011;45247;47.466;19.004;2023-11-19T10:33:53;21.00;;;11.90;;
59442;SDS011;45247;47.466;19.004;2023-11-19T10:36:22;21.45;;;12.82;;
59442;SDS011;45247;47.466;19.004;2023-11-19T10:38:52;23.10;;;13.32;;
59442;SDS011;45247;47.466;19.004;2023-11-19T10:41:27;25.02;;;13.18;;
59442;SDS011;45247;47.466;19.004;2023-11-19T10:43:56;25.10;;;15.20;;
59442;SDS011;45247;47.466;19.004;2023-11-19T10:46:36;19.95;;;12.80;;
59442;SDS011;45247;47.466;19.004;2023-11-19T10:49:06;24.77;;;12.80;;
59442;SDS011;45247;47.466;19.004;2023-11-19T10:51:35;21.70;;;13.20;;
59442;SDS011;45247;47.466;19.004;2023-11-19T10:54:03;24.88;;;13.60;;
59442;SDS011;45247;47.466;19.004;2023-11-19T10:56:33;23.90;;;13.20;;
59442;SDS011;45247;47.466;19.004;2023-11-19T10:59:02;20.73;;;11.82;;
59442;SDS011;45247;47.466;19.004;2023-11-19T11:01:50;19.27;;;12.07;;
59442;SDS011;45247;47.466;19.004;2023-11-19T11:04:22;23.48;;;12.90;;
59442;SDS011;45247;47.466;19.004;2023-11-19T11:06:53;22.85;;;12.38;;
59442;SDS011;45247;47.466;19.004;2023-11-19T11:09:22;21.58;;;11.90;;
59442;SDS011;45247;47.466;19.004;2023-11-19T11:11:50;23.67;;;12.27;;
59442;SDS011;45247;47.466;19.004;2023-11-19T11:14:20;24.92;;;12.80;;
59442;SDS011;45247;47.466;19.004;2023-11-19T11:16:51;19.85;;;12.35;;
59442;SDS011;45247;47.466;19.004;2023-11-19T11:19:21;19.83;;;12.15;;
59442;SDS011;45247;47.466;19.004;2023-11-19T11:21:50;22.67;;;12.95;;
59442;SDS011;45247;47.466;19.004;2023-11-19T11:24:27;21.92;;;12.77;;
59442;SDS011;45247;47.466;19.004;2023-11-19T11:27:21;26.00;;;14.20;;
59442;SDS011;45247;47.466;19.004;2023-11-19T11:30:08;27.05;;;13.75;;
59442;SDS011;45247;47.466;19.004;2023-11-19T11:32:50;22.60;;;14.00;;
59442;SDS011;45247;47.466;19.004;2023-11-19T11:35:30;24.30;;;14.20;;
59442;SDS011;45247;47.466;19.004;2023-11-19T11:38:04;23.02;;;14.07;;
59442;SDS011;45247;47.466;19.004;2023-11-19T11:40:35;22.38;;;13.40;;
59442;SDS011;45247;47.466;19.004;2023-11-19T11:43:03;22.13;;;13.35;;
59442;SDS011;45247;47.466;19.004;2023-11-19T11:45:35;20.00;;;12.02;;
59442;SDS011;45247;47.466;19.004;2023-11-19T11:50:54;22.55;;;12.55;;
59442;SDS011;45247;47.466;19.004;2023-11-19T11:53:24;21.77;;;13.23;;
59442;SDS011;45247;47.466;19.004;2023-11-19T11:55:54;18.85;;;12.70;;
59442;SDS011;45247;47.466;19.004;2023-11-19T11:58:26;22.30;;;12.85;;
59442;SDS011;45247;47.466;19.004;2023-11-19T12:00:58;19.90;;;12.17;;
59442;SDS011;45247;47.466;19.004;2023-11-19T12:03:30;23.33;;;12.77;;
59442;SDS011;45247;47.466;19.004;2023-11-19T12:05:59;20.92;;;12.32;;
59442;SDS011;45247;47.466;19.004;2023-11-19T12:08:28;22.92;;;12.85;;
59442;SDS011;45247;47.466;19.004;2023-11-19T12:10:58;21.30;;;12.18;;
59442;SDS011;45247;47.466;19.004;2023-11-19T12:13:42;25.17;;;12.98;;
59442;SDS011;45247;47.466;19.004;2023-11-19T12:16:15;20.17;;;13.07;;
59442;SDS011;45247;47.466;19.004;2023-11-19T12:18:45;19.98;;;12.68;;
59442;SDS011;45247;47.466;19.004;2023-11-19T12:21:27;20.45;;;13.10;;
59442;SDS011;45247;47.466;19.004;2023-11-19T12:23:57;20.33;;;12.55;;
59442;SDS011;45247;47.466;19.004;2023-11-19T12:26:31;18.70;;;11.90;;
59442;SDS011;45247;47.466;19.004;2023-11-19T12:29:04;19.23;;;12.13;;
59442;SDS011;45247;47.466;19.004;2023-11-19T12:31:35;21.88;;;12.30;;
59442;SDS011;45247;47.466;19.004;2023-11-19T12:34:08;21.08;;;12.75;;
59442;SDS011;45247;47.466;19.004;2023-11-19T12:36:39;19.13;;;12.40;;
59442;SDS011;45247;47.466;19.004;2023-11-19T12:39:10;16.92;;;11.13;;
59442;SDS011;45247;47.466;19.004;2023-11-19T12:41:53;17.98;;;11.45;;
59442;SDS011;45247;47.466;19.004;2023-11-19T12:44:21;20.20;;;11.65;;
59442;SDS011;45247;47.466;19.004;2023-11-19T12:47:00;18.23;;;11.52;;
59442;SDS011;45247;47.466;19.004;2023-11-19T12:49:31;20.23;;;10.98;;
59442;SDS011;45247;47.466;19.004;2023-11-19T12:51:59;20.27;;;11.30;;
59442;SDS011;45247;47.466;19.004;2023-11-19T12:54:31;21.15;;;11.35;;
59442;SDS011;45247;47.466;19.004;2023-11-19T12:57:01;19.00;;;11.85;;
59442;SDS011;45247;47.466;19.004;2023-11-19T12:59:31;17.92;;;10.85;;
59442;SDS011;45247;47.466;19.004;2023-11-19T13:02:00;17.73;;;9.48;;
59442;SDS011;45247;47.466;19.004;2023-11-19T13:04:30;16.50;;;9.68;;
59442;SDS011;45247;47.466;19.004;2023-11-19T13:06:59;15.20;;;9.68;;
59442;SDS011;45247;47.466;19.004;2023-11-19T13:09:31;15.80;;;9.25;;
59442;SDS011;45247;47.466;19.004;2023-11-19T13:11:59;14.13;;;8.88;;
59442;SDS011;45247;47.466;19.004;2023-11-19T13:14:41;16.42;;;9.07;;
59442;SDS011;45247;47.466;19.004;2023-11-19T13:17:14;13.98;;;8.80;;
59442;SDS011;45247;47.466;19.004;2023-11-19T13:19:44;15.77;;;9.57;;
59442;SDS011;45247;47.466;19.004;2023-11-19T13:22:15;15.80;;;9.02;;
59442;SDS011;45247;47.466;19.004;2023-11-19T13:24:43;20.05;;;9.48;;
59442;SDS011;45247;47.466;19.004;2023-11-19T13:27:11;16.70;;;9.85;;
59442;SDS011;45247;47.466;19.004;2023-11-19T13:29:41;17.08;;;9.68;;
59442;SDS011;45247;47.466;19.004;2023-11-19T13:32:10;19.45;;;8.98;;
59442;SDS011;45247;47.466;19.004;2023-11-19T13:34:38;13.55;;;8.75;;
59442;SDS011;45247;47.466;19.004;2023-11-19T13:37:08;16.60;;;9.40;;
59442;SDS011;45247;47.466;19.004;2023-11-19T13:39:36;22.10;;;10.02;;
59442;SDS011;45247;47.466;19.004;2023-11-19T13:42:10;19.05;;;10.43;;
59442;SDS011;45247;47.466;19.004;2023-11-19T13:44:39;16.60;;;10.15;;
59442;SDS011;45247;47.466;19.004;2023-11-19T13:47:09;17.80;;;9.30;;
59442;SDS011;45247;47.466;19.004;2023-11-19T13:49:37;19.80;;;10.85;;
59442;SDS011;45247;47.466;19.004;2023-11-19T13:52:05;18.48;;;9.18;;
59442;SDS011;45247;47.466;19.004;2023-11-19T13:54:36;17.08;;;9.65;;
59442;SDS011;45247;47.466;19.004;2023-11-19T13:57:04;14.98;;;9.15;;
59442;SDS011;45247;47.466;19.004;2023-11-19T13:59:32;22.25;;;10.02;;
59442;SDS011;45247;47.466;19.004;2023-11-19T14:02:01;17.52;;;10.25;;
59442;SDS011;45247;47.466;19.004;2023-11-19T14:04:29;15.95;;;9.90;;
59442;SDS011;45247;47.466;19.004;2023-11-19T14:06:57;16.33;;;10.00;;
59442;SDS011;45247;47.466;19.004;2023-11-19T14:09:27;16.13;;;10.32;;
59442;SDS011;45247;47.466;19.004;2023-11-19T14:11:57;15.73;;;10.07;;
59442;SDS011;45247;47.466;19.004;2023-11-19T14:14:25;17.05;;;10.32;;
59442;SDS011;45247;47.466;19.004;2023-11-19T14:16:53;16.58;;;10.02;;
59442;SDS011;45247;47.466;19.004;2023-11-19T14:19:39;16.73;;;10.45;;
59442;SDS011;45247;47.466;19.004;2023-11-19T14:22:08;18.38;;;11.35;;
59442;SDS011;45247;47.466;19.004;2023-11-19T14:24:37;18.35;;;10.60;;
59442;SDS011;45247;47.466;19.004;2023-11-19T14:27:09;18.90;;;10.68;;
59442;SDS011;45247;47.466;19.004;2023-11-19T14:29:38;18.42;;;10.60;;
59442;SDS011;45247;47.466;19.004;2023-11-19T14:32:06;19.42;;;11.13;;
59442;SDS011;45247;47.466;19.004;2023-11-19T14:34:35;16.48;;;10.52;;
59442;SDS011;45247;47.466;19.004;2023-11-19T14:37:03;18.33;;;10.57;;
59442;SDS011;45247;47.466;19.004;2023-11-19T14:39:33;17.02;;;10.43;;